This is the latest recevied weather packets stored in our database for station/object F4MLU-13. If no packets are shown the sender has not sent any weather packets the latest 10 day(s).
| Time | Temp. | Humidity | Pressure | Rain* | Wind** | Luminosity | Snow |
|---|---|---|---|---|---|---|---|
| 1777415445 | 11.67° C | 99% | - | 0 mm | - | - | - |
| 1777414875 | 11.67° C | 99% | - | 0 mm | - | - | - |
| 1777412475 | 11.67° C | 99% | - | 0 mm | - | - | - |
| 1777411245 | 12.22° C | 99% | - | 0 mm | - | - | - |
| 1777409446 | 12.78° C | 99% | - | 0 mm | - | - | - |
| 1777400146 | 15° C | 96% | - | 2.03 mm | - | - | - |
| 1777396546 | 15° C | 96% | - | 32 mm | - | - | - |
| 1777395946 | 15° C | 96% | - | 38.1 mm | - | - | - |
| 1777391146 | 18.89° C | 86% | - | 6.1 mm | - | - | - |
| 1777388747 | 20.56° C | 77% | - | 0 mm | - | - | - |
| 1777385746 | 21.67° C | 77% | - | 0 mm | - | - | - |
| 1777383947 | 23.89° C | 66% | - | 0 mm | - | - | - |
| 1777383346 | 23.33° C | 68% | - | 0 mm | - | - | - |
| 1777380947 | 21.11° C | 76% | - | 0 mm | - | - | - |
| 1777379747 | 22.22° C | 71% | - | 0 mm | - | - | - |
| 1777374347 | 24.44° C | 63% | - | 0 mm | - | - | - |
| 1777371347 | 23.33° C | 69% | - | 0 mm | - | - | - |
| 1777364747 | 20.56° C | 75% | - | 0 mm | - | - | - |
| 1777362947 | 18.33° C | 82% | - | 0 mm | - | - | - |
| 1777362347 | 18.89° C | 80% | - | 0 mm | - | - | - |
| 1777360568 | 17.22° C | 86% | - | 0 mm | - | - | - |
| 1777358147 | 12.78° C | 99% | - | 0 mm | - | - | - |
| 1777357547 | 12.22° C | 99% | - | 0 mm | - | - | - |
| 1777350947 | 11.11° C | 99% | - | 0 mm | - | - | - |
| 1777349147 | 11.67° C | 99% | - | 0 mm | - | - | - |
* Rain latest hour (hover to see other rain measurements)
** Current wind speed in m/s (hover to see current wind gust speed)